Time;durP1;ratioP1;P1;durP2;ratioP2;P2;SDS_P1;SDS_P2;PMS_P1;PMS_P2;Temp;Humidity;BMP_temperature;BMP_pressure;BME280_temperature;BME280_humidity;BME280_pressure;Samples;Min_cycle;Max_cycle;Signal;HPM_P1;HPM_P2
2022/09/23 00:01:48;;;;;;;;;;;;;;;;;;6293727;22;19923;-88
2022/09/23 00:04:14;;;;;;;;;;;;;;;;;;6270524;22;19915;-86
2022/09/23 00:06:40;;;;;;;;;;;;;;;;;;6294007;22;19976;-87
2022/09/23 00:09:06;;;;;;;;;;;;;;;;;;6297347;22;20243;-87
2022/09/23 00:11:32;;;;;;;;;;;;;;;;;;6298933;22;19922;-87
2022/09/23 00:13:58;;;;;;;;;;;;;;;;;;6268253;22;19987;-87
2022/09/23 00:16:24;;;;;;;;;;;;;;;;;;6298576;22;19950;-86
2022/09/23 00:18:50;;;;;;;;;;;;;;;;;;6269736;22;19922;-87
2022/09/23 00:21:16;;;;;;;;;;;;;;;;;;6271812;22;19926;-87
2022/09/23 00:23:42;;;;;;;;;;;;;;;;;;6291383;22;19985;-86
2022/09/23 00:26:08;;;;;;;;;;;;;;;;;;6270890;22;19996;-86
2022/09/23 00:28:34;;;;;;;;;;;;;;;;;;6270505;22;19918;-87
2022/09/23 00:31:00;;;;;;;;;;;;;;;;;;6270481;22;19918;-87
2022/09/23 00:33:26;;;;;;;;;;;;;;;;;;6296020;22;19993;-87
2022/09/23 00:35:52;;;;;;;;;;;;;;;;;;6268484;22;20020;-87
2022/09/23 00:38:18;;;;;;;;;;;;;;;;;;6271226;22;19921;-87
2022/09/23 00:40:44;;;;;;;;;;;;;;;;;;6295409;22;19989;-86
2022/09/23 00:43:10;;;;;;;;;;;;;;;;;;6271978;22;19915;-86
2022/09/23 00:45:37;;;;;;;;;;;;;;;;;;6298444;22;19991;-87
2022/09/23 00:48:04;;;;;;;;;;;;;;;;;;6269301;22;19993;-86
2022/09/23 00:50:30;;;;;;;;;;;;;;;;;;6296207;22;20255;-87
2022/09/23 00:52:56;;;;;;;;;;;;;;;;;;6295091;22;19914;-86
2022/09/23 00:55:24;;;;;;;;;;;;;;;;;;6271100;22;20343;-86
2022/09/23 00:57:50;;;;;;;;;;;;;;;;;;6293469;22;19925;-86
2022/09/23 01:00:16;;;;;;;;;;;;;;;;;;6320344;22;20279;-86
2022/09/23 01:02:42;;;;;;;;;;;;;;;;;;6293106;22;20015;-87
2022/09/23 01:05:08;;;;;;;;;;;;;;;;;;6295448;22;19914;-86
2022/09/23 01:07:34;;;;;;;;;;;;;;;;;;6270227;22;20424;-87
2022/09/23 01:10:00;;;;;;;;;;;;;;;;;;6294496;22;20283;-87
2022/09/23 01:12:26;;;;;;;;;;;;;;;;;;6296520;22;19922;-86
2022/09/23 01:14:51;;;;;;;;;;;;;;;;;;6268170;22;19945;-86
2022/09/23 01:17:18;;;;;;;;;;;;;;;;;;6295217;22;19919;-87
2022/09/23 01:19:44;;;;;;;;;;;;;;;;;;6266432;22;19918;-87
2022/09/23 01:22:10;;;;;;;;;;;;;;;;;;6271136;22;19930;-86
2022/09/23 01:24:39;;;;;;;;;;;;;;;;;;6266185;22;19993;-87
2022/09/23 01:27:05;;;;;;;;;;;;;;;;;;6270872;22;20681;-87
2022/09/23 01:29:32;;;;;;;;;;;;;;;;;;6296751;22;19925;-88
2022/09/23 01:31:58;;;;;;;;;;;;;;;;;;6264918;22;19918;-87
2022/09/23 01:34:24;;;;;;;;;;;;;;;;;;6294138;22;19985;-88
2022/09/23 01:36:50;;;;;;;;;;;;;;;;;;6268155;22;19946;-87
2022/09/23 01:39:16;;;;;;;;;;;;;;;;;;6266090;22;20315;-87
2022/09/23 01:41:42;;;;;;;;;;;;;;;;;;6260336;22;19929;-87
2022/09/23 01:44:08;;;;;;;;;;;;;;;;;;6267645;22;19993;-86
2022/09/23 01:46:35;;;;;;;;;;;;;;;;;;6268730;22;20310;-86
2022/09/23 01:49:01;;;;;;;;;;;;;;;;;;6265969;22;19918;-86
2022/09/23 01:51:27;;;;;;;;;;;;;;;;;;6293545;22;19945;-86
2022/09/23 01:53:53;;;;;;;;;;;;;;;;;;6289117;22;20368;-86
2022/09/23 01:56:19;;;;;;;;;;;;;;;;;;6266557;22;19918;-87
2022/09/23 01:58:45;;;;;;;;;;;;;;;;;;6268598;22;19919;-86
2022/09/23 02:01:11;;;;;;;;;;;;;;;;;;6292793;22;20168;-86
2022/09/23 02:03:37;;;;;;;;;;;;;;;;;;6292291;22;19948;-86
2022/09/23 02:06:03;;;;;;;;;;;;;;;;;;6293154;22;19919;-86
2022/09/23 02:08:29;;;;;;;;;;;;;;;;;;6295649;22;20487;-86
2022/09/23 02:10:55;;;;;;;;;;;;;;;;;;6265796;22;20328;-86
2022/09/23 02:13:23;;;;;;;;;;;;;;;;;;6293343;22;20429;-87
2022/09/23 02:15:48;;;;;;;;;;;;;;;;;;6291630;22;19914;-86
2022/09/23 02:18:14;;;;;;;;;;;;;;;;;;6269409;22;20350;-86
2022/09/23 02:20:40;;;;;;;;;;;;;;;;;;6290494;22;20255;-86
2022/09/23 02:23:06;;;;;;;;;;;;;;;;;;6268959;22;20676;-87
2022/09/23 02:25:32;;;;;;;;;;;;;;;;;;6318965;22;19925;-86
2022/09/23 02:27:58;;;;;;;;;;;;;;;;;;6294537;22;20299;-86
2022/09/23 02:30:26;;;;;;;;;;;;;;;;;;6296368;22;19921;-86
2022/09/23 02:32:52;;;;;;;;;;;;;;;;;;6269854;22;20399;-87
2022/09/23 02:35:18;;;;;;;;;;;;;;;;;;6271189;22;20005;-87
2022/09/23 02:37:45;;;;;;;;;;;;;;;;;;6267691;22;20328;-86
2022/09/23 02:40:11;;;;;;;;;;;;;;;;;;6293548;22;19962;-86
2022/09/23 02:42:37;;;;;;;;;;;;;;;;;;6292994;22;20568;-87
2022/09/23 02:45:04;;;;;;;;;;;;;;;;;;6269174;22;19919;-86
2022/09/23 02:47:30;;;;;;;;;;;;;;;;;;6298366;22;19942;-86
2022/09/23 02:49:56;;;;;;;;;;;;;;;;;;6291926;22;20262;-87
2022/09/23 02:52:23;;;;;;;;;;;;;;;;;;6297907;22;19989;-87
2022/09/23 02:54:49;;;;;;;;;;;;;;;;;;6267206;22;20358;-87
2022/09/23 02:57:15;;;;;;;;;;;;;;;;;;6270920;22;19918;-87
2022/09/23 02:59:42;;;;;;;;;;;;;;;;;;6292127;22;19914;-87
2022/09/23 03:02:08;;;;;;;;;;;;;;;;;;6297951;22;19923;-87
2022/09/23 03:04:33;;;;;;;;;;;;;;;;;;6295519;22;19919;-86
2022/09/23 03:06:59;;;;;;;;;;;;;;;;;;6292175;22;19996;-86
2022/09/23 03:09:25;;;;;;;;;;;;;;;;;;6269988;22;19923;-87
2022/09/23 03:11:51;;;;;;;;;;;;;;;;;;6293871;22;19925;-87
2022/09/23 03:14:17;;;;;;;;;;;;;;;;;;6272189;22;20036;-86
2022/09/23 03:16:43;;;;;;;;;;;;;;;;;;6294393;22;19918;-87
2022/09/23 03:19:11;;;;;;;;;;;;;;;;;;6299756;22;19918;-86
2022/09/23 03:21:37;;;;;;;;;;;;;;;;;;6299992;22;19966;-87
2022/09/23 03:24:03;;;;;;;;;;;;;;;;;;6274452;22;19922;-86
2022/09/23 03:26:29;;;;;;;;;;;;;;;;;;6300364;22;19983;-87
2022/09/23 03:28:55;;;;;;;;;;;;;;;;;;6272832;22;19918;-86
2022/09/23 03:31:21;;;;;;;;;;;;;;;;;;6299851;22;19959;-87
2022/09/23 03:33:47;;;;;;;;;;;;;;;;;;6295900;22;19918;-87
2022/09/23 03:38:58;;;;;;;;;;;;;;;;;;6294417;22;19946;-87
2022/09/23 03:41:24;;;;;;;;;;;;;;;;;;6271099;22;20282;-86
2022/09/23 03:43:52;;;;;;;;;;;;;;;;;;6270440;22;19926;-86
2022/09/23 03:46:18;;;;;;;;;;;;;;;;;;6274880;22;19915;-86
2022/09/23 03:48:44;;;;;;;;;;;;;;;;;;6297978;22;19925;-87
2022/09/23 03:51:10;;;;;;;;;;;;;;;;;;6301190;22;19918;-87
2022/09/23 03:53:40;;;;;;;;;;;;;;;;;;6296823;22;19964;-86
2022/09/23 03:56:06;;;;;;;;;;;;;;;;;;6270734;22;19925;-86
2022/09/23 03:58:31;;;;;;;;;;;;;;;;;;6271717;22;19914;-86
2022/09/23 04:00:58;;;;;;;;;;;;;;;;;;6268002;22;19933;-86
2022/09/23 04:03:26;;;;;;;;;;;;;;;;;;6298783;22;19968;-86
2022/09/23 04:05:52;;;;;;;;;;;;;;;;;;6265638;22;20287;-86
2022/09/23 04:08:18;;;;;;;;;;;;;;;;;;6271522;22;19921;-86
2022/09/23 04:10:44;;;;;;;;;;;;;;;;;;6291609;22;19918;-87
2022/09/23 04:13:11;;;;;;;;;;;;;;;;;;6297053;22;19950;-86
2022/09/23 04:15:37;;;;;;;;;;;;;;;;;;6270744;22;19922;-86
2022/09/23 04:18:02;;;;;;;;;;;;;;;;;;6294659;22;19926;-86
2022/09/23 04:20:29;;;;;;;;;;;;;;;;;;6296493;22;19919;-86
2022/09/23 04:22:55;;;;;;;;;;;;;;;;;;6294748;22;20301;-86
2022/09/23 04:25:21;;;;;;;;;;;;;;;;;;6271916;22;19922;-87
2022/09/23 04:27:47;;;;;;;;;;;;;;;;;;6265516;22;19921;-86
2022/09/23 04:30:13;;;;;;;;;;;;;;;;;;6297551;22;19963;-86
2022/09/23 04:32:38;;;;;;;;;;;;;;;;;;6296741;22;19918;-86
2022/09/23 04:35:04;;;;;;;;;;;;;;;;;;6295876;22;19996;-87
2022/09/23 04:37:30;;;;;;;;;;;;;;;;;;6269202;22;19926;-86
2022/09/23 04:39:56;;;;;;;;;;;;;;;;;;6268516;22;20111;-86
2022/09/23 04:42:22;;;;;;;;;;;;;;;;;;6270077;22;19998;-86
2022/09/23 04:44:48;;;;;;;;;;;;;;;;;;6289464;22;19919;-87
2022/09/23 04:47:14;;;;;;;;;;;;;;;;;;6295246;22;20391;-86
2022/09/23 04:49:40;;;;;;;;;;;;;;;;;;6267857;22;19985;-86
2022/09/23 04:52:06;;;;;;;;;;;;;;;;;;6296511;22;19961;-86
2022/09/23 04:54:32;;;;;;;;;;;;;;;;;;6298917;22;19922;-86
2022/09/23 04:56:58;;;;;;;;;;;;;;;;;;6294160;22;19915;-86
2022/09/23 04:59:24;;;;;;;;;;;;;;;;;;6270417;22;19919;-87
2022/09/23 05:01:54;;;;;;;;;;;;;;;;;;6291719;22;19919;-86
2022/09/23 05:04:20;;;;;;;;;;;;;;;;;;6268932;22;20000;-87
2022/09/23 05:06:46;;;;;;;;;;;;;;;;;;6267539;22;19949;-86
2022/09/23 05:09:11;;;;;;;;;;;;;;;;;;6271098;22;20363;-86
2022/09/23 05:11:37;;;;;;;;;;;;;;;;;;6291112;22;20295;-86
2022/09/23 05:14:03;;;;;;;;;;;;;;;;;;6267718;22;19918;-86
2022/09/23 05:16:29;;;;;;;;;;;;;;;;;;6295356;22;19921;-86
2022/09/23 05:18:56;;;;;;;;;;;;;;;;;;6266161;22;20323;-87
2022/09/23 05:21:22;;;;;;;;;;;;;;;;;;6266509;22;19973;-86
2022/09/23 05:23:48;;;;;;;;;;;;;;;;;;6269288;22;19915;-86
2022/09/23 05:26:14;;;;;;;;;;;;;;;;;;6270017;22;19919;-86
2022/09/23 05:28:40;;;;;;;;;;;;;;;;;;6295256;22;19925;-86
2022/09/23 05:31:06;;;;;;;;;;;;;;;;;;6267317;22;20161;-87
2022/09/23 05:33:32;;;;;;;;;;;;;;;;;;6297331;22;19914;-86
2022/09/23 05:35:58;;;;;;;;;;;;;;;;;;6267368;22;19929;-86
2022/09/23 05:38:24;;;;;;;;;;;;;;;;;;6295725;22;19984;-86
2022/09/23 05:40:50;;;;;;;;;;;;;;;;;;6291385;22;19915;-87
2022/09/23 05:43:16;;;;;;;;;;;;;;;;;;6267845;22;19923;-86
2022/09/23 05:45:42;;;;;;;;;;;;;;;;;;6292457;22;19946;-86
2022/09/23 05:48:08;;;;;;;;;;;;;;;;;;6271297;22;19922;-87
2022/09/23 05:50:34;;;;;;;;;;;;;;;;;;6294731;22;19919;-86
2022/09/23 05:53:00;;;;;;;;;;;;;;;;;;6291840;22;19982;-86
2022/09/23 05:55:25;;;;;;;;;;;;;;;;;;6263702;22;20315;-86
2022/09/23 05:57:54;;;;;;;;;;;;;;;;;;6293994;22;19919;-90
2022/09/23 06:00:20;;;;;;;;;;;;;;;;;;6264783;22;19947;-86
2022/09/23 06:02:46;;;;;;;;;;;;;;;;;;6267772;22;19918;-86
2022/09/23 06:05:12;;;;;;;;;;;;;;;;;;6270410;22;19914;-87
2022/09/23 06:07:38;;;;;;;;;;;;;;;;;;6292580;22;19994;-86
2022/09/23 06:10:05;;;;;;;;;;;;;;;;;;6270954;22;20020;-87
2022/09/23 06:12:33;;;;;;;;;;;;;;;;;;6297486;22;19942;-87
2022/09/23 06:14:59;;;;;;;;;;;;;;;;;;6297450;22;19919;-86
2022/09/23 06:17:25;;;;;;;;;;;;;;;;;;6296901;22;19969;-86
2022/09/23 06:19:51;;;;;;;;;;;;;;;;;;6298024;22;19915;-87
2022/09/23 06:22:17;;;;;;;;;;;;;;;;;;6295642;22;20220;-87
2022/09/23 06:24:43;;;;;;;;;;;;;;;;;;6292164;22;19915;-87
2022/09/23 06:27:09;;;;;;;;;;;;;;;;;;6269315;22;20326;-87
2022/09/23 06:29:35;;;;;;;;;;;;;;;;;;6294801;22;19922;-92
2022/09/23 06:32:03;;;;;;;;;;;;;;;;;;6270163;22;19915;-86
2022/09/23 06:34:29;;;;;;;;;;;;;;;;;;6293692;22;20324;-86
2022/09/23 06:36:56;;;;;;;;;;;;;;;;;;6290391;22;19965;-89
2022/09/23 06:39:22;;;;;;;;;;;;;;;;;;6267629;22;19919;-87
2022/09/23 06:41:48;;;;;;;;;;;;;;;;;;6261576;22;19985;-87
2022/09/23 06:44:14;;;;;;;;;;;;;;;;;;6268601;22;20336;-87
2022/09/23 06:46:40;;;;;;;;;;;;;;;;;;6268810;22;20241;-87
2022/09/23 06:49:06;;;;;;;;;;;;;;;;;;6299131;22;19918;-86
2022/09/23 06:51:32;;;;;;;;;;;;;;;;;;6297214;22;19927;-86
2022/09/23 06:53:58;;;;;;;;;;;;;;;;;;6297410;22;19965;-86
2022/09/23 06:56:24;;;;;;;;;;;;;;;;;;6299732;22;19915;-86
2022/09/23 06:58:50;;;;;;;;;;;;;;;;;;6268336;22;19941;-86
2022/09/23 07:01:16;;;;;;;;;;;;;;;;;;6298499;22;20016;-86
2022/09/23 07:03:42;;;;;;;;;;;;;;;;;;6298166;22;19915;-86
2022/09/23 07:06:07;;;;;;;;;;;;;;;;;;6299000;22;19918;-86
2022/09/23 07:08:33;;;;;;;;;;;;;;;;;;6299390;22;19919;-86
2022/09/23 07:10:59;;;;;;;;;;;;;;;;;;6296784;22;19992;-86
2022/09/23 07:13:25;;;;;;;;;;;;;;;;;;6298520;22;19926;-86
2022/09/23 07:15:51;;;;;;;;;;;;;;;;;;6295724;22;19991;-86
2022/09/23 07:18:17;;;;;;;;;;;;;;;;;;6299610;22;20339;-86
2022/09/23 07:20:43;;;;;;;;;;;;;;;;;;6269869;22;19950;-86
2022/09/23 07:23:09;;;;;;;;;;;;;;;;;;6298773;22;20362;-86
2022/09/23 07:25:35;;;;;;;;;;;;;;;;;;6272574;22;19958;-86
2022/09/23 07:28:01;;;;;;;;;;;;;;;;;;6296796;22;19918;-86
2022/09/23 07:30:27;;;;;;;;;;;;;;;;;;6271522;22;19977;-86
2022/09/23 07:32:53;;;;;;;;;;;;;;;;;;6296540;22;20239;-86
2022/09/23 07:35:19;;;;;;;;;;;;;;;;;;6299242;22;19923;-86
2022/09/23 07:37:45;;;;;;;;;;;;;;;;;;6294214;22;19925;-86
2022/09/23 07:40:11;;;;;;;;;;;;;;;;;;6274123;22;20012;-86
2022/09/23 07:42:39;;;;;;;;;;;;;;;;;;6296461;22;19919;-86
2022/09/23 07:45:06;;;;;;;;;;;;;;;;;;6274449;22;19918;-86
2022/09/23 07:47:31;;;;;;;;;;;;;;;;;;6298866;22;20018;-86
2022/09/23 07:49:57;;;;;;;;;;;;;;;;;;6270512;22;19949;-86
2022/09/23 07:52:23;;;;;;;;;;;;;;;;;;6298436;22;20328;-86
2022/09/23 07:54:50;;;;;;;;;;;;;;;;;;6295982;22;19989;-86
2022/09/23 07:57:16;;;;;;;;;;;;;;;;;;6272906;22;20320;-86
2022/09/23 07:59:42;;;;;;;;;;;;;;;;;;6268340;22;19995;-86
2022/09/23 08:02:08;;;;;;;;;;;;;;;;;;6296596;22;19926;-86
2022/09/23 08:04:34;;;;;;;;;;;;;;;;;;6271264;22;19925;-86
2022/09/23 08:07:00;;;;;;;;;;;;;;;;;;6296041;22;20323;-86
2022/09/23 08:09:26;;;;;;;;;;;;;;;;;;6299227;22;20350;-86
2022/09/23 08:11:52;;;;;;;;;;;;;;;;;;6292250;22;20440;-86
2022/09/23 08:14:17;;;;;;;;;;;;;;;;;;6294264;22;19972;-86
2022/09/23 08:16:44;;;;;;;;;;;;;;;;;;6291709;22;19919;-86
2022/09/23 08:19:10;;;;;;;;;;;;;;;;;;6296775;22;20005;-86
2022/09/23 08:21:37;;;;;;;;;;;;;;;;;;6269450;22;19954;-86
2022/09/23 08:24:03;;;;;;;;;;;;;;;;;;6294098;22;19919;-86
2022/09/23 08:26:31;;;;;;;;;;;;;;;;;;6269442;22;20374;-87
2022/09/23 08:28:57;;;;;;;;;;;;;;;;;;6292645;22;20311;-86
2022/09/23 08:31:23;;;;;;;;;;;;;;;;;;6297704;22;19919;-86
2022/09/23 08:33:49;;;;;;;;;;;;;;;;;;6269295;22;19922;-86
2022/09/23 08:36:15;;;;;;;;;;;;;;;;;;6270095;22;20255;-86
2022/09/23 08:38:41;;;;;;;;;;;;;;;;;;6269318;22;20037;-86
2022/09/23 08:41:07;;;;;;;;;;;;;;;;;;6298386;22;19923;-86
2022/09/23 08:43:33;;;;;;;;;;;;;;;;;;6297205;22;19919;-86
2022/09/23 08:45:59;;;;;;;;;;;;;;;;;;6294010;22;19915;-86
2022/09/23 08:48:25;;;;;;;;;;;;;;;;;;6297657;22;19950;-86
2022/09/23 08:50:51;;;;;;;;;;;;;;;;;;6292569;22;20247;-86
2022/09/23 08:53:17;;;;;;;;;;;;;;;;;;6270043;22;19914;-86
2022/09/23 08:55:43;;;;;;;;;;;;;;;;;;6291874;22;19968;-86
2022/09/23 08:58:08;;;;;;;;;;;;;;;;;;6292896;22;19926;-86
2022/09/23 09:00:34;;;;;;;;;;;;;;;;;;6293598;22;19919;-87
2022/09/23 09:03:00;;;;;;;;;;;;;;;;;;6290310;22;20347;-86
2022/09/23 09:05:26;;;;;;;;;;;;;;;;;;6292208;22;19986;-86
2022/09/23 09:07:52;;;;;;;;;;;;;;;;;;6264133;22;19961;-87
2022/09/23 09:10:18;;;;;;;;;;;;;;;;;;6270061;22;19918;-86
2022/09/23 09:12:44;;;;;;;;;;;;;;;;;;6267491;22;20432;-86
2022/09/23 09:15:11;;;;;;;;;;;;;;;;;;6296803;22;19926;-86
2022/09/23 09:17:38;;;;;;;;;;;;;;;;;;6294191;22;19919;-87
2022/09/23 09:20:05;;;;;;;;;;;;;;;;;;6296674;22;19919;-86
2022/09/23 09:22:32;;;;;;;;;;;;;;;;;;6296884;22;19923;-86
2022/09/23 09:24:58;;;;;;;;;;;;;;;;;;6293366;22;19923;-86
2022/09/23 09:27:24;;;;;;;;;;;;;;;;;;6270648;22;20240;-86
2022/09/23 09:29:52;;;;;;;;;;;;;;;;;;6269557;22;19919;-86
2022/09/23 09:32:18;;;;;;;;;;;;;;;;;;6299314;22;19968;-86
2022/09/23 09:34:44;;;;;;;;;;;;;;;;;;6293224;22;20307;-86
2022/09/23 09:37:11;;;;;;;;;;;;;;;;;;6297676;22;19922;-86
2022/09/23 09:39:37;;;;;;;;;;;;;;;;;;6267438;22;19915;-86
2022/09/23 09:42:03;;;;;;;;;;;;;;;;;;6290317;22;19922;-87
2022/09/23 09:44:29;;;;;;;;;;;;;;;;;;6268277;22;19988;-86
2022/09/23 09:46:55;;;;;;;;;;;;;;;;;;6293529;22;19923;-86
2022/09/23 09:49:21;;;;;;;;;;;;;;;;;;6297242;22;20243;-86
2022/09/23 09:51:47;;;;;;;;;;;;;;;;;;6268221;22;20000;-86
2022/09/23 09:54:13;;;;;;;;;;;;;;;;;;6272011;22;20536;-86
2022/09/23 09:56:40;;;;;;;;;;;;;;;;;;6293286;22;19919;-86
2022/09/23 09:59:06;;;;;;;;;;;;;;;;;;6269614;22;20368;-87
2022/09/23 10:01:32;;;;;;;;;;;;;;;;;;6295304;22;19953;-86
2022/09/23 10:03:58;;;;;;;;;;;;;;;;;;6267805;22;19919;-86
2022/09/23 10:06:24;;;;;;;;;;;;;;;;;;6294690;22;20363;-87
2022/09/23 10:08:51;;;;;;;;;;;;;;;;;;6293203;22;19989;-87
2022/09/23 10:11:17;;;;;;;;;;;;;;;;;;6295318;22;19922;-86
2022/09/23 10:13:45;;;;;;;;;;;;;;;;;;6292804;22;19919;-87
2022/09/23 10:16:11;;;;;;;;;;;;;;;;;;6267950;22;20392;-86
2022/09/23 10:18:37;;;;;;;;;;;;;;;;;;6267849;22;19950;-86
2022/09/23 10:21:04;;;;;;;;;;;;;;;;;;6291579;22;19918;-86
2022/09/23 10:23:32;;;;;;;;;;;;;;;;;;6268238;22;19918;-86
2022/09/23 10:25:59;;;;;;;;;;;;;;;;;;6291625;22;19922;-86
2022/09/23 10:28:24;;;;;;;;;;;;;;;;;;6270948;22;19919;-87
2022/09/23 10:30:50;;;;;;;;;;;;;;;;;;6268518;22;19926;-86
2022/09/23 10:33:16;;;;;;;;;;;;;;;;;;6269868;22;19919;-87
2022/09/23 10:35:42;;;;;;;;;;;;;;;;;;6265420;22;19950;-86
2022/09/23 10:38:08;;;;;;;;;;;;;;;;;;6267236;22;19926;-86
2022/09/23 10:48:49;;;;;;;;;;;;;;;;;;6292535;22;19915;-87
2022/09/23 10:51:15;;;;;;;;;;;;;;;;;;6294380;22;19976;-87
2022/09/23 10:53:41;;;;;;;;;;;;;;;;;;6265378;22;19922;-86
2022/09/23 10:56:06;;;;;;;;;;;;;;;;;;6293325;22;20001;-86
2022/09/23 10:58:32;;;;;;;;;;;;;;;;;;6294685;22;19926;-86
2022/09/23 11:00:58;;;;;;;;;;;;;;;;;;6262907;22;20014;-86
2022/09/23 11:03:24;;;;;;;;;;;;;;;;;;6293071;22;19918;-87
2022/09/23 11:05:50;;;;;;;;;;;;;;;;;;6289255;22;19915;-87
2022/09/23 11:08:17;;;;;;;;;;;;;;;;;;6291540;22;19954;-87
2022/09/23 11:10:43;;;;;;;;;;;;;;;;;;6265366;22;19980;-86
2022/09/23 11:13:09;;;;;;;;;;;;;;;;;;6294338;22;19919;-86
2022/09/23 11:15:35;;;;;;;;;;;;;;;;;;6267828;22;20305;-87
2022/09/23 11:18:01;;;;;;;;;;;;;;;;;;6265590;22;19915;-87
2022/09/23 11:20:27;;;;;;;;;;;;;;;;;;6295539;22;20224;-86
2022/09/23 11:22:53;;;;;;;;;;;;;;;;;;6264273;22;19926;-87
2022/09/23 11:25:22;;;;;;;;;;;;;;;;;;6269069;22;20382;-86
2022/09/23 11:27:47;;;;;;;;;;;;;;;;;;6292462;22;20280;-86
2022/09/23 11:30:13;;;;;;;;;;;;;;;;;;6294553;22;19926;-86
2022/09/23 11:32:39;;;;;;;;;;;;;;;;;;6291132;22;19919;-86
2022/09/23 11:35:05;;;;;;;;;;;;;;;;;;6269368;22;19929;-87
2022/09/23 11:37:31;;;;;;;;;;;;;;;;;;6271881;22;20276;-86
2022/09/23 11:39:57;;;;;;;;;;;;;;;;;;6268012;22;20463;-86
2022/09/23 11:42:23;;;;;;;;;;;;;;;;;;6296180;22;19945;-87
2022/09/23 11:44:49;;;;;;;;;;;;;;;;;;6266762;22;19921;-86
2022/09/23 11:47:15;;;;;;;;;;;;;;;;;;6295873;22;20381;-86
2022/09/23 11:49:41;;;;;;;;;;;;;;;;;;6295794;22;19953;-86
2022/09/23 11:52:07;;;;;;;;;;;;;;;;;;6270058;22;19919;-86
2022/09/23 11:54:33;;;;;;;;;;;;;;;;;;6298091;22;19923;-86
2022/09/23 11:56:59;;;;;;;;;;;;;;;;;;6293698;22;19950;-86
2022/09/23 11:59:25;;;;;;;;;;;;;;;;;;6270469;22;19926;-87
2022/09/23 12:01:51;;;;;;;;;;;;;;;;;;6293114;22;19922;-87
2022/09/23 12:04:17;;;;;;;;;;;;;;;;;;6297366;22;20243;-86
2022/09/23 12:06:43;;;;;;;;;;;;;;;;;;6268238;22;20355;-86
2022/09/23 12:09:09;;;;;;;;;;;;;;;;;;6270968;22;19918;-87
2022/09/23 12:11:35;;;;;;;;;;;;;;;;;;6268252;22;19923;-86
2022/09/23 12:14:01;;;;;;;;;;;;;;;;;;6293703;22;19962;-86
2022/09/23 12:16:27;;;;;;;;;;;;;;;;;;6271280;22;20327;-87
2022/09/23 12:18:53;;;;;;;;;;;;;;;;;;6268494;22;19919;-86
2022/09/23 12:21:19;;;;;;;;;;;;;;;;;;6295266;22;19976;-86
2022/09/23 12:23:45;;;;;;;;;;;;;;;;;;6293763;22;19957;-86
2022/09/23 12:26:13;;;;;;;;;;;;;;;;;;6295983;22;19915;-86
2022/09/23 12:28:39;;;;;;;;;;;;;;;;;;6292449;22;19972;-86
2022/09/23 12:31:05;;;;;;;;;;;;;;;;;;6268597;22;20392;-87
2022/09/23 12:33:31;;;;;;;;;;;;;;;;;;6269250;22;19915;-87
2022/09/23 12:35:57;;;;;;;;;;;;;;;;;;6293299;22;20249;-87
2022/09/23 12:38:24;;;;;;;;;;;;;;;;;;6294111;22;19965;-87
2022/09/23 12:40:51;;;;;;;;;;;;;;;;;;6293379;22;19918;-87
2022/09/23 12:43:16;;;;;;;;;;;;;;;;;;6268343;22;19919;-87
2022/09/23 12:45:42;;;;;;;;;;;;;;;;;;6264362;22;20327;-86
2022/09/23 12:48:08;;;;;;;;;;;;;;;;;;6292983;22;19919;-87
2022/09/23 12:50:35;;;;;;;;;;;;;;;;;;6295576;22;20176;-86
2022/09/23 12:53:02;;;;;;;;;;;;;;;;;;6293315;22;19989;-87
2022/09/23 12:55:28;;;;;;;;;;;;;;;;;;6295373;22;20381;-86
2022/09/23 12:57:54;;;;;;;;;;;;;;;;;;6295387;22;19990;-86
2022/09/23 13:00:21;;;;;;;;;;;;;;;;;;6295612;22;20061;-87
2022/09/23 13:06:37;;;;;;;;;;;;;;;;;;6293947;22;19954;-87
2022/09/23 13:08:21;;;;;;;;;;;;;;;;;;6294551;22;19926;-86
2022/09/23 13:10:50;;;;;;;;;;;;;;;;;;6292068;22;19918;-86
2022/09/23 13:13:16;;;;;;;;;;;;;;;;;;6291594;22;19919;-86
2022/09/23 13:15:41;;;;;;;;;;;;;;;;;;6262219;22;19977;-86
2022/09/23 13:18:07;;;;;;;;;;;;;;;;;;6264713;22;19922;-86
2022/09/23 13:20:35;;;;;;;;;;;;;;;;;;6290996;22;19918;-86
2022/09/23 13:23:01;;;;;;;;;;;;;;;;;;6289060;22;19923;-89
2022/09/23 13:25:27;;;;;;;;;;;;;;;;;;6268995;22;19980;-90
2022/09/23 13:27:53;;;;;;;;;;;;;;;;;;6262510;22;19926;-86
2022/09/23 13:30:19;;;;;;;;;;;;;;;;;;6291767;22;19914;-87
2022/09/23 13:32:45;;;;;;;;;;;;;;;;;;6262704;22;20269;-87
2022/09/23 13:35:11;;;;;;;;;;;;;;;;;;6294595;22;19930;-87
2022/09/23 13:37:37;;;;;;;;;;;;;;;;;;6266362;22;19926;-87
2022/09/23 13:40:05;;;;;;;;;;;;;;;;;;6293321;22;19926;-87
2022/09/23 13:42:32;;;;;;;;;;;;;;;;;;6293881;22;19923;-87
2022/09/23 13:44:59;;;;;;;;;;;;;;;;;;6280327;22;19925;-87
2022/09/23 13:47:25;;;;;;;;;;;;;;;;;;6288321;22;19919;-87
2022/09/23 13:49:54;;;;;;;;;;;;;;;;;;6260975;22;19922;-88
2022/09/23 13:52:23;;;;;;;;;;;;;;;;;;6270555;22;20290;-88
2022/09/23 13:54:49;;;;;;;;;;;;;;;;;;6291955;22;19964;-89
2022/09/23 13:57:15;;;;;;;;;;;;;;;;;;6268644;22;19918;-90
2022/09/23 13:59:41;;;;;;;;;;;;;;;;;;6266956;22;19957;-89
2022/09/23 14:02:07;;;;;;;;;;;;;;;;;;6269053;22;19950;-89
2022/09/23 14:04:33;;;;;;;;;;;;;;;;;;6267959;22;19919;-88
2022/09/23 14:06:59;;;;;;;;;;;;;;;;;;6289972;22;19918;-91
2022/09/23 14:09:26;;;;;;;;;;;;;;;;;;6257682;22;19930;-88
2022/09/23 14:11:52;;;;;;;;;;;;;;;;;;6254491;22;19915;-87
2022/09/23 14:14:18;;;;;;;;;;;;;;;;;;6287441;22;20433;-87
2022/09/23 14:16:44;;;;;;;;;;;;;;;;;;6287124;22;20232;-88
2022/09/23 14:19:10;;;;;;;;;;;;;;;;;;6289997;22;19965;-88
2022/09/23 14:21:36;;;;;;;;;;;;;;;;;;6287507;22;19923;-88
2022/09/23 14:24:02;;;;;;;;;;;;;;;;;;6259425;22;19919;-88
2022/09/23 14:26:28;;;;;;;;;;;;;;;;;;6288120;22;19961;-88
2022/09/23 14:28:54;;;;;;;;;;;;;;;;;;6286234;22;19966;-88
2022/09/23 14:31:20;;;;;;;;;;;;;;;;;;6286711;22;20283;-88
2022/09/23 14:33:46;;;;;;;;;;;;;;;;;;6280969;22;19943;-88
2022/09/23 14:38:49;;;;;;;;;;;;;;;;;;6261317;22;19923;-88
2022/09/23 14:38:58;;;;;;;;;;;;;;;;;;6286889;22;19953;-88
2022/09/23 14:41:24;;;;;;;;;;;;;;;;;;6263485;22;19954;-88
2022/09/23 14:43:50;;;;;;;;;;;;;;;;;;6279002;22;19926;-88
2022/09/23 14:46:16;;;;;;;;;;;;;;;;;;6261806;22;19915;-89
2022/09/23 14:48:41;;;;;;;;;;;;;;;;;;6284357;22;19919;-88
2022/09/23 14:51:07;;;;;;;;;;;;;;;;;;6285916;22;20028;-87
2022/09/23 14:53:33;;;;;;;;;;;;;;;;;;6258506;22;19926;-88
2022/09/23 14:55:59;;;;;;;;;;;;;;;;;;6255555;22;20251;-87
2022/09/23 14:58:27;;;;;;;;;;;;;;;;;;6257266;22;20263;-88
2022/09/23 15:00:53;;;;;;;;;;;;;;;;;;6255381;22;19915;-88
2022/09/23 15:03:22;;;;;;;;;;;;;;;;;;6259321;22;19929;-87
2022/09/23 15:05:48;;;;;;;;;;;;;;;;;;6282629;22;19918;-88
2022/09/23 15:08:36;;;;;;;;;;;;;;;;;;6287159;22;19919;-88
2022/09/23 15:11:01;;;;;;;;;;;;;;;;;;6284472;22;20254;-88
2022/09/23 15:13:27;;;;;;;;;;;;;;;;;;6289635;22;20434;-88
2022/09/23 15:15:54;;;;;;;;;;;;;;;;;;6260918;22;19919;-88
2022/09/23 15:18:22;;;;;;;;;;;;;;;;;;6290530;22;19925;-88
2022/09/23 15:20:48;;;;;;;;;;;;;;;;;;6285878;22;19919;-87
2022/09/23 15:23:14;;;;;;;;;;;;;;;;;;6263210;22;19919;-87
2022/09/23 15:25:40;;;;;;;;;;;;;;;;;;6257893;22;20340;-87
2022/09/23 15:28:09;;;;;;;;;;;;;;;;;;6263030;22;19925;-87
2022/09/23 15:30:35;;;;;;;;;;;;;;;;;;6290355;22;19985;-87
2022/09/23 15:33:01;;;;;;;;;;;;;;;;;;6285113;22;19923;-87
2022/09/23 15:35:27;;;;;;;;;;;;;;;;;;6259460;22;19972;-88
2022/09/23 15:37:54;;;;;;;;;;;;;;;;;;6284133;22;19919;-88
2022/09/23 15:40:19;;;;;;;;;;;;;;;;;;6259556;22;19934;-88
2022/09/23 15:42:51;;;;;;;;;;;;;;;;;;6285532;22;19930;-88
2022/09/23 15:45:19;;;;;;;;;;;;;;;;;;6288610;22;19926;-88
2022/09/23 15:47:45;;;;;;;;;;;;;;;;;;6286113;22;19954;-89
2022/09/23 15:50:11;;;;;;;;;;;;;;;;;;6262082;22;20019;-89
2022/09/23 15:52:38;;;;;;;;;;;;;;;;;;6288545;22;19914;-89
2022/09/23 15:55:05;;;;;;;;;;;;;;;;;;6285255;22;19922;-88
2022/09/23 15:57:30;;;;;;;;;;;;;;;;;;6292102;22;20135;-89
2022/09/23 15:59:57;;;;;;;;;;;;;;;;;;6261136;22;20435;-89
2022/09/23 16:02:23;;;;;;;;;;;;;;;;;;6260484;22;19969;-89
2022/09/23 16:04:51;;;;;;;;;;;;;;;;;;6284874;22;20318;-90
2022/09/23 16:07:18;;;;;;;;;;;;;;;;;;6288492;22;20284;-90
2022/09/23 16:09:45;;;;;;;;;;;;;;;;;;6262094;22;19915;-90
2022/09/23 16:12:11;;;;;;;;;;;;;;;;;;6265249;22;19919;-89
2022/09/23 16:14:37;;;;;;;;;;;;;;;;;;6266471;22;19981;-91
2022/09/23 16:17:03;;;;;;;;;;;;;;;;;;6266531;22;20261;-89
2022/09/23 16:19:32;;;;;;;;;;;;;;;;;;6265148;22;19923;-90
2022/09/23 16:21:58;;;;;;;;;;;;;;;;;;6261917;22;19927;-90
2022/09/23 16:24:24;;;;;;;;;;;;;;;;;;6258016;22;20360;-88
2022/09/23 16:26:50;;;;;;;;;;;;;;;;;;6255334;22;19989;-90
2022/09/23 16:29:16;;;;;;;;;;;;;;;;;;6258108;22;20022;-89
2022/09/23 16:31:42;;;;;;;;;;;;;;;;;;6283908;22;19919;-89
2022/09/23 16:34:08;;;;;;;;;;;;;;;;;;6288142;22;20418;-91
2022/09/23 16:36:34;;;;;;;;;;;;;;;;;;6259180;22;19994;-89
2022/09/23 16:39:32;;;;;;;;;;;;;;;;;;5112261;27;19924;-90
2022/09/23 16:41:58;;;;;;;;;;;;;;;;;;5074173;27;19939;-90
2022/09/23 16:44:24;;;;;;;;;;;;;;;;;;5073034;27;19947;-89
2022/09/23 16:46:50;;;;;;;;;;;;;;;;;;5070889;27;19971;-89
2022/09/23 16:49:16;;;;;;;;;;;;;;;;;;5075815;27;20659;-89
2022/09/23 16:51:42;;;;;;;;;;;;;;;;;;5059022;27;19924;-90
2022/09/23 16:54:09;;;;;;;;;;;;;;;;;;5062222;27;20389;-90